Latest Weather Observations for Katanning RS

IDW60801

Issued at 4:05 pm WST Thursday 21 August 2014 (issued every 30 minutes, with the page automatically refreshed every 10 minutes)

About weather observations | Map of weather stations | Latest weather observations for WA | Other Formats
Station Details ID: 010916 Name: KATANNING Lat: -33.69 Lon: 117.61 Height: 320.0 m
Data from the previous 72 hours. | See also: Recent months at Katanning RS
Date/Time
WST
Temp
°C
App
Temp
°C
Dew
Point
Rel
Hum
%
Delta-T
°C
Wind Press
QNH
hPa
Press
MSL
hPa
Rain
since 9 am
mm
Dir
 
Spd
km/h
Gust
km/h
Spd
kts
Gust
kts
21/04:00pm 14.7 12.3 11.3 80 1.8 WNW 15 22 8 12 1010.5 1010.6 1.0
21/03:30pm 13.7 9.5 11.2 85 1.3 W 24 35 13 19 1010.1 1010.2 1.0
21/03:00pm 14.5 9.1 10.9 79 1.9 WNW 30 44 16 24 1010.0 1010.1 0.4
21/02:30pm 16.9 12.0 10.1 64 3.6 NW 26 39 14 21 1009.0 1009.1 0.0
21/02:00pm 17.2 12.5 9.4 60 4.1 NW 24 37 13 20 1008.9 1009.0 0.0
21/01:30pm 18.2 13.6 9.8 58 4.5 NW 24 37 13 20 1008.9 1009.0 0.0
21/01:00pm 18.0 13.3 9.4 57 4.6 NW 24 43 13 23 1008.9 1009.0 0.0
21/12:30pm 17.3 12.6 9.2 59 4.3 NW 24 33 13 18 1009.0 1009.1 0.0
21/12:00pm 16.7 11.9 8.9 60 4.1 WNW 24 41 13 22 1009.5 1009.5 0.0
21/11:30am 16.1 11.4 9.3 64 3.6 WNW 24 37 13 20 1009.7 1009.7 0.0
21/11:00am 16.5 12.0 10.1 66 3.4 WNW 24 37 13 20 1009.9 1010.0 0.0
21/10:30am 15.7 11.9 12.3 80 1.9 WNW 24 39 13 21 1009.8 1009.9 0.0
21/10:00am 14.9 12.1 12.6 86 1.3 WNW 19 28 10 15 1009.6 1009.6 0.0
21/09:30am 13.7 10.7 11.9 89 1.0 NW 19 30 10 16 1009.6 1009.6 0.0
21/09:00am 13.2 9.1 11.4 89 1.0 NNW 24 39 13 21 1009.2 1009.2 5.8
21/08:30am 12.8 9.3 11.0 89 1.0 NNW 20 30 11 16 1009.0 1009.1 5.6
21/08:00am 12.3 9.3 10.7 90 0.8 N 17 28 9 15 1008.4 1008.5 5.6
21/07:30am 12.3 7.1 10.4 88 1.0 N 28 43 15 23 1008.2 1008.3 4.0
21/07:00am 12.3 8.2 10.2 87 1.1 N 22 32 12 17 1008.0 1008.1 1.4
21/06:30am 12.4 9.5 9.8 84 1.3 N 15 22 8 12 1007.6 1007.7 0.2
21/06:00am 12.6 9.1 10.1 85 1.3 N 19 28 10 15 1007.8 1007.9 0.2
21/05:30am 12.2 9.0 10.1 87 1.1 N 17 28 9 15 1007.9 1008.0 0.0
21/05:00am 12.2 9.0 9.9 86 1.2 N 17 22 9 12 1008.5 1008.6 0.0
21/04:30am 11.9 9.0 9.8 87 1.1 N 15 20 8 11 1008.9 1009.0 0.0
21/04:00am 11.5 8.9 9.4 87 1.1 N 13 19 7 10 1008.8 1008.9 0.0
21/03:30am 11.6 8.7 9.5 87 1.1 N 15 24 8 13 1008.9 1009.0 0.0
21/03:00am 11.6 8.2 9.3 86 1.2 N 17 26 9 14 1009.3 1009.3 0.0
21/02:30am 11.6 8.7 9.5 87 1.1 N 15 20 8 11 1010.0 1010.1 0.0
21/02:00am 11.4 8.4 9.3 87 1.1 N 15 19 8 10 1010.4 1010.5 0.0
21/01:30am 11.5 8.5 9.4 87 1.1 N 15 20 8 11 1011.0 1011.1 0.0
21/01:00am 11.4 8.4 9.3 87 1.1 N 15 19 8 10 1011.2 1011.3 0.0
21/12:30am 11.6 8.2 9.2 85 1.2 N 17 22 9 12 1011.7 1011.8 0.0
21/12:00am 12.0 9.1 9.6 85 1.2 N 15 22 8 12 1011.8 1011.9 0.0
 
Date/Time
WST
Temp
°C
App
Temp
°C
Dew
Point
Rel
Hum
%
Delta-T
°C
Wind Press
QNH
hPa
Press
MSL
hPa
Rain
since 9 am
mm
Dir
 
Spd
km/h
Gust
km/h
Spd
kts
Gust
kts
20/11:30pm 12.1 9.6 9.8 86 1.2 N 13 20 7 11 1012.4 1012.5 0.0
20/11:00pm 11.8 9.2 9.5 86 1.2 N 13 19 7 10 1012.7 1012.8 0.0
20/10:30pm 11.9 9.4 9.6 86 1.2 N 13 19 7 10 1013.2 1013.3 0.0
20/10:00pm 11.8 9.2 9.5 86 1.2 N 13 19 7 10 1013.6 1013.7 0.0
20/09:30pm 11.6 9.8 9.5 87 1.1 NNW 9 15 5 8 1013.7 1013.8 0.0
20/09:00pm 11.8 10.1 9.9 88 1.0 N 9 15 5 8 1013.7 1013.8 0.0
20/08:30pm 12.4 10.8 10.1 86 1.2 N 9 11 5 6 1013.8 1013.9 0.0
20/08:00pm 13.1 11.2 10.6 85 1.3 N 11 15 6 8 1013.8 1013.9 0.0
20/07:30pm 13.0 11.6 10.9 87 1.1 N 9 13 5 7 1013.8 1013.9 0.0
20/07:00pm 12.7 11.2 10.4 86 1.2 N 9 11 5 6 1013.6 1013.7 0.0
20/06:30pm 12.7 11.2 10.4 86 1.2 N 9 13 5 7 1013.7 1013.8 0.0
20/06:00pm 13.1 11.8 10.1 82 1.6 N 7 11 4 6 1013.7 1013.8 0.0
20/05:30pm 13.7 10.9 10.1 79 1.9 NW 15 20 8 11 1013.6 1013.7 0.0
20/05:00pm 14.4 11.7 10.2 76 2.2 NW 15 22 8 12 1013.4 1013.5 0.0
20/04:30pm 14.9 11.1 9.7 71 2.7 NNW 20 32 11 17 1013.4 1013.5 0.0
20/04:00pm 15.8 12.0 9.0 64 3.5 NNW 19 30 10 16 1013.2 1013.3 0.0
20/03:30pm 16.3 13.7 9.3 63 3.7 NNW 13 19 7 10 1013.0 1013.1 0.0
20/03:00pm 17.6 14.0 8.5 55 4.8 NNW 17 26 9 14 1012.9 1013.0 0.0
20/02:30pm 17.4 14.7 8.8 57 4.5 NNW 13 20 7 11 1013.1 1013.2 0.0
20/02:00pm 17.1 13.9 9.8 62 3.9 NNW 17 26 9 14 1013.4 1013.5 0.0
20/01:30pm 17.5 14.4 10.4 63 3.8 N 17 26 9 14 1013.5 1013.6 0.0
20/01:00pm 15.9 13.3 10.7 71 2.8 NNW 15 20 8 11 1013.9 1014.0 0.0
20/12:30pm 15.7 13.5 10.9 73 2.6 NNW 13 19 7 10 1014.2 1014.3 0.0
20/12:00pm 15.4 13.1 10.6 73 2.6 NNW 13 20 7 11 1014.7 1014.8 0.0
20/11:30am 14.7 12.6 11.1 79 1.9 NNW 13 20 7 11 1015.3 1015.5 0.0
20/11:00am 13.9 12.1 10.9 82 1.6 NNW 11 17 6 9 1015.8 1015.9 0.0
20/10:30am 13.4 11.2 10.9 85 1.3 NNW 13 17 7 9 1015.9 1016.0 0.0
20/10:00am 12.7 11.7 11.1 90 0.9 NNW 7 11 4 6 1015.9 1016.0 0.0
20/09:30am 12.1 11.0 10.8 92 0.7 NW 7 13 4 7 1016.1 1016.2 0.0
20/09:00am 11.7 10.2 10.4 92 0.7 WNW 9 15 5 8 1016.3 1016.4 0.0
20/08:30am 11.4 10.1 10.1 92 0.7 NW 7 15 4 8 1015.9 - 0.0
20/08:00am 11.2 9.2 10.0 92 0.6 NW 11 17 6 9 1015.9 1016.0 0.0
20/07:30am 11.4 9.8 10.1 92 0.7 NW 9 15 5 8 1015.4 - 0.0
20/07:00am 11.4 9.8 10.1 92 0.7 NW 9 13 5 7 1015.3 1015.5 0.0
20/06:30am 11.4 9.4 10.1 92 0.7 NW 11 17 6 9 1015.1 - 0.0
20/06:00am 11.4 9.4 10.1 92 0.7 NNW 11 15 6 8 1015.1 1015.3 0.0
20/05:30am 11.1 9.8 9.9 92 0.6 N 7 11 4 6 1014.9 - 0.0
20/05:00am 9.6 8.8 8.2 91 0.7 N 2 4 1 2 1014.8 1014.9 0.0
20/04:30am 9.8 9.4 8.4 91 0.7 CALM 0 0 0 0 1014.9 - 0.0
20/04:00am 9.0 8.1 7.6 91 0.7 NNW 2 6 1 3 1015.0 1015.2 0.0
20/03:30am 8.9 8.3 7.5 91 0.7 CALM 0 0 0 0 1015.0 - 0.0
20/03:00am 9.4 7.6 8.0 91 0.7 NNW 7 7 4 4 1015.4 1015.6 0.0
20/02:30am 8.1 7.3 6.6 90 0.7 CALM 0 0 0 0 1015.5 - 0.0
20/02:00am 8.6 7.9 7.1 90 0.7 CALM 0 0 0 0 1015.5 1015.7 0.0
20/01:30am 7.8 6.9 6.1 89 0.8 CALM 0 0 0 0 1015.9 - 0.0
20/01:00am 9.1 8.5 7.5 90 0.8 CALM 0 0 0 0 1016.0 1016.1 0.0
20/12:30am 8.4 6.9 6.9 90 0.7 N 4 4 2 2 1016.3 - 0.0
20/12:00am 8.9 8.2 6.9 87 0.9 CALM 0 4 0 2 1016.3 1016.4 0.0
 
Date/Time
WST
Temp
°C
App
Temp
°C
Dew
Point
Rel
Hum
%
Delta-T
°C
Wind Press
QNH
hPa
Press
MSL
hPa
Rain
since 9 am
mm
Dir
 
Spd
km/h
Gust
km/h
Spd
kts
Gust
kts
19/11:30pm 9.5 8.5 7.4 87 1.0 SE 2 6 1 3 1016.2 - 0.0
19/11:00pm 9.9 9.4 7.7 86 1.1 CALM 0 0 0 0 1016.5 1016.6 0.0
19/10:30pm 10.3 9.8 7.7 84 1.3 CALM 0 0 0 0 1016.7 - 0.0
19/10:00pm 10.7 10.3 8.1 84 1.3 CALM 0 0 0 0 1016.7 1016.8 0.0
19/09:30pm 10.4 9.8 7.5 82 1.4 CALM 0 0 0 0 1016.5 - 0.0
19/09:00pm 10.7 10.2 7.9 83 1.4 CALM 0 0 0 0 1016.6 1016.7 0.0
19/08:30pm 11.2 10.6 7.5 78 1.8 CALM 0 0 0 0 1016.5 - 0.0
19/08:00pm 12.0 11.6 8.1 77 1.9 CALM 0 0 0 0 1016.6 1016.7 0.0
19/07:30pm 12.5 12.1 8.2 75 2.2 CALM 0 0 0 0 1016.4 - 0.0
19/07:00pm 12.6 12.2 8.3 75 2.2 CALM 0 0 0 0 1016.1 1016.2 0.0
19/06:30pm 13.4 12.1 7.6 68 2.9 WSW 4 4 2 2 1016.0 - 0.0
19/06:00pm 13.8 12.2 7.8 67 3.0 WSW 6 6 3 3 1015.8 1015.9 0.0
19/05:30pm 14.6 13.4 7.9 64 3.4 WSW 4 6 2 3 1015.5 - 0.0
19/05:00pm 15.4 14.2 8.2 62 3.7 WSW 4 6 2 3 1015.2 1015.4 0.0
19/04:30pm 16.1 14.7 8.8 62 3.8 WSW 6 9 3 5 1015.0 - 0.0
19/04:00pm 16.0 15.3 8.5 61 3.9 S 2 7 1 4 1014.8 1014.9 0.0
19/03:30pm 16.1 14.6 9.3 64 3.6 SW 7 11 4 6 1014.9 - 0.0
19/03:00pm 16.1 14.4 8.3 60 4.0 SW 7 13 4 7 1014.7 1014.8 0.0
19/02:30pm 15.8 13.4 8.8 63 3.6 SW 11 19 6 10 1014.7 - 0.0
19/02:00pm 16.2 15.1 10.1 67 3.3 SSW 6 9 3 5 1014.4 1014.5 0.0
19/01:30pm 15.1 13.6 9.2 68 3.1 S 7 11 4 6 1014.6 - 0.0
19/01:00pm 15.5 14.4 10.7 73 2.6 S 7 17 4 9 1014.8 1014.9 0.0
19/12:30pm 15.1 14.0 10.7 75 2.4 SW 7 11 4 6 1015.0 - 0.0
19/12:00pm 14.7 13.4 9.9 73 2.5 WSW 7 11 4 6 1015.0 1015.2 0.0
19/11:30am 14.2 12.9 9.8 75 2.3 SW 7 13 4 7 1015.2 - 0.0
19/11:00am 14.4 12.7 10.0 75 2.3 WSW 9 13 5 7 1015.3 1015.5 0.0
19/10:30am 14.2 12.9 9.8 75 2.3 WSW 7 11 4 6 1015.4 - 0.0
19/10:00am 14.3 12.8 10.7 79 1.9 W 9 11 5 6 1015.7 1015.8 0.0
19/09:30am 13.2 11.1 9.8 80 1.8 W 11 17 6 9 1015.7 - 0.0
19/09:00am 13.3 11.8 10.7 84 1.4 W 9 13 5 7 1015.5 1015.7 10.4
19/08:30am 12.9 11.6 11.3 90 0.9 W 9 13 5 7 1015.5 - 10.4
19/08:00am 11.7 10.7 10.3 91 0.7 NW 6 9 3 5 1015.0 1015.2 10.4
19/07:30am 11.4 10.7 10.0 91 0.7 WNW 4 6 2 3 1014.6 - 10.4
19/07:00am 10.8 9.9 9.2 90 0.8 NW 4 6 2 3 1014.4 1014.5 10.4
19/06:30am 10.6 9.2 9.0 90 0.8 WNW 6 9 3 5 1014.2 - 10.4
19/06:00am 10.9 9.1 9.3 90 0.8 WNW 9 11 5 6 1013.9 1014.0 10.4
19/05:30am 11.1 9.9 9.5 90 0.8 WNW 6 9 3 5 1013.7 - 10.4
19/05:00am 11.2 9.8 9.6 90 0.8 WNW 7 11 4 6 1013.5 1013.6 10.4
19/04:30am 11.2 9.4 9.6 90 0.8 WNW 9 13 5 7 1013.5 - 10.4
19/04:00am 11.2 9.1 9.6 90 0.8 W 11 17 6 9 1013.3 1013.4 10.4
19/03:30am 11.1 8.9 9.5 90 0.8 WNW 11 15 6 8 1013.2 - 10.4
19/03:00am 11.0 9.2 9.4 90 0.8 WNW 9 17 5 9 1013.1 1013.2 10.2
19/02:30am 11.0 9.2 9.4 90 0.8 WNW 9 15 5 8 1013.2 - 10.2
19/02:00am 10.9 9.1 9.3 90 0.8 NW 9 13 5 7 1013.3 1013.4 10.2
19/01:30am 10.8 8.9 9.2 90 0.8 NW 9 15 5 8 1013.4 - 10.2
19/01:00am 10.5 8.1 8.8 89 0.9 NNW 11 15 6 8 1013.3 1013.4 10.0
19/12:30am 10.6 7.5 8.7 88 1.0 NNW 15 22 8 12 1013.3 - 10.0
19/12:00am 10.6 7.1 8.7 88 1.0 NNW 17 22 9 12 1013.3 1013.4 10.0
 
Date/Time
WST
Temp
°C
App
Temp
°C
Dew
Point
Rel
Hum
%
Delta-T
°C
Wind Press
QNH
hPa
Press
MSL
hPa
Rain
since 9 am
mm
Dir
 
Spd
km/h
Gust
km/h
Spd
kts
Gust
kts
18/11:30pm 10.6 7.8 8.7 88 1.0 NNW 13 20 7 11 1013.3 - 10.0
18/11:00pm 10.4 7.2 8.3 87 1.0 NNW 15 22 8 12 1013.5 1013.6 10.0
18/10:30pm 11.0 7.1 8.8 86 1.1 NNW 19 28 10 15 1013.7 - 10.0
18/10:00pm 11.3 7.5 8.9 85 1.2 NNW 19 26 10 14 1013.6 1013.7 10.0
18/09:30pm 11.5 8.5 9.2 86 1.2 NNW 15 20 8 11 1013.6 - 10.0
18/09:00pm 11.2 7.8 9.1 87 1.1 NNW 17 20 9 11 1013.5 1013.6 10.0
18/08:30pm 11.3 8.3 9.2 87 1.1 NNW 15 20 8 11 1013.4 - 10.0
18/08:00pm 11.2 8.6 9.3 88 1.0 NW 13 20 7 11 1012.9 1013.0 10.0
18/07:30pm 11.7 8.8 9.8 88 1.0 NNW 15 24 8 13 1012.6 - 10.0
18/07:00pm 11.8 9.3 9.7 87 1.1 N 13 22 7 12 1012.4 1012.5 10.0
18/06:30pm 11.2 9.7 9.1 87 1.1 N 7 9 4 5 1011.9 - 9.6
18/06:00pm 11.4 9.1 9.1 86 1.2 N 11 15 6 8 1011.7 1011.8 9.4
18/05:30pm 12.2 7.8 8.9 80 1.7 NNW 22 30 12 16 1011.6 - 9.2
18/05:00pm 13.1 9.8 9.7 80 1.8 N 17 26 9 14 1011.0 1011.1 8.8
18/04:30pm 13.5 10.8 10.5 82 1.6 N 15 24 8 13 1011.0 - 8.8

Other Formats:

Comma delimited format used in spreadsheet applications
http://www.bom.gov.au/fwo/IDW60801/IDW60801.94641.axf

JavaScript Object Notation format (JSON) in row-major order
http://www.bom.gov.au/fwo/IDW60801/IDW60801.94641.json